Time;durP1;ratioP1;P1;durP2;ratioP2;P2;SDS_P1;SDS_P2;PMS_P1;PMS_P2;Temp;Humidity;BMP_temperature;BMP_pressure;BME280_temperature;BME280_humidity;BME280_pressure;Samples;Min_cycle;Max_cycle;Signal;HPM_P1;HPM_P2
2024/01/08 00:01:35;;;;;;;10.15;2.40;;;;;;;-4.03;50.98;103265.88;4947494;28;20096;-65
2024/01/08 00:04:00;;;;;;;6.22;2.78;;;;;;;-4.03;50.74;103269.34;4961529;28;21167;-65
2024/01/08 00:06:26;;;;;;;3.42;2.10;;;;;;;-3.81;50.70;103278.25;4956509;28;20058;-66
2024/01/08 00:08:51;;;;;;;5.38;1.65;;;;;;;-3.80;50.52;103282.56;4952964;28;20038;-67
2024/01/08 00:11:17;;;;;;;10.48;2.15;;;;;;;-4.04;51.00;103277.78;4956760;28;20026;-66
2024/01/08 00:13:42;;;;;;;6.38;2.10;;;;;;;-4.04;50.91;103275.22;4950929;28;20502;-68
2024/01/08 00:16:08;;;;;;;3.08;1.42;;;;;;;-3.93;50.46;103276.72;4963336;28;20088;-68
2024/01/08 00:18:34;;;;;;;3.97;1.77;;;;;;;-3.88;49.89;103285.53;4954786;28;20038;-71
2024/01/08 00:21:02;;;;;;;6.40;2.15;;;;;;;-3.84;50.21;103278.94;4955590;28;20049;-71
2024/01/08 00:23:29;;;;;;;4.78;2.28;;;;;;;-3.80;50.29;103280.91;4973052;28;20062;-70
2024/01/08 00:25:55;;;;;;;6.93;2.13;;;;;;;-3.75;50.17;103289.69;4972140;28;20053;-70
2024/01/08 00:28:20;;;;;;;8.13;1.65;;;;;;;-3.73;50.05;103290.69;4954633;28;20047;-66
2024/01/08 00:30:46;;;;;;;5.50;1.88;;;;;;;-3.75;49.99;103289.69;4954958;28;20472;-69
2024/01/08 00:33:11;;;;;;;4.03;1.80;;;;;;;-3.84;50.24;103293.41;4956542;28;20350;-68
2024/01/08 00:35:39;;;;;;;3.72;1.60;;;;;;;-3.71;50.25;103301.00;4958664;28;20572;-68
2024/01/08 00:38:05;;;;;;;5.75;2.10;;;;;;;-3.99;50.64;103291.69;4953005;28;20232;-69
2024/01/08 00:40:30;;;;;;;8.32;2.10;;;;;;;-3.84;50.56;103295.97;4955302;28;20053;-69
2024/01/08 00:42:57;;;;;;;7.60;1.75;;;;;;;-3.95;50.65;103303.00;4954433;28;20058;-69
2024/01/08 00:45:23;;;;;;;3.65;1.83;;;;;;;-3.84;50.58;103298.50;4954180;28;20648;-70
2024/01/08 00:47:49;;;;;;;3.05;0.98;;;;;;;-3.74;49.95;103304.25;4958091;28;20209;-70
2024/01/08 00:50:15;;;;;;;4.70;2.15;;;;;;;-3.72;49.61;103301.78;4946260;28;20031;-69
2024/01/08 00:52:41;;;;;;;3.35;1.48;;;;;;;-3.94;49.85;103300.53;4978267;28;20025;-69
2024/01/08 00:55:07;;;;;;;6.97;2.03;;;;;;;-3.78;49.93;103309.97;4941620;28;20307;-69
2024/01/08 00:57:33;;;;;;;5.30;1.42;;;;;;;-4.06;49.75;103310.00;4948929;28;20138;-70
2024/01/08 00:59:58;;;;;;;7.00;2.10;;;;;;;-3.85;49.59;103306.97;4946263;28;20952;-69
2024/01/08 01:02:23;;;;;;;8.73;1.63;;;;;;;-3.74;49.38;103313.56;4933629;28;20113;-69
2024/01/08 01:04:50;;;;;;;4.20;1.40;;;;;;;-3.71;49.16;103317.22;4929992;28;20209;-67
2024/01/08 01:07:16;;;;;;;4.20;1.88;;;;;;;-3.75;49.39;103322.06;4933962;28;20424;-66
2024/01/08 01:09:42;;;;;;;4.97;2.22;;;;;;;-3.79;49.68;103326.09;4930547;28;20046;-67
2024/01/08 01:12:12;;;;;;;4.05;1.60;;;;;;;-3.79;49.56;103318.41;4933058;28;21228;-67
2024/01/08 01:14:37;;;;;;;5.68;1.35;;;;;;;-3.94;49.86;103323.53;4952342;28;20204;-68
2024/01/08 01:17:03;;;;;;;8.82;1.88;;;;;;;-3.95;49.97;103326.84;4957046;28;20485;-68
2024/01/08 01:19:29;;;;;;;8.30;1.38;;;;;;;-3.93;49.85;103324.41;4955929;28;20046;-67
2024/01/08 01:21:55;;;;;;;3.33;1.25;;;;;;;-3.95;49.55;103324.31;4954000;28;20038;-67
2024/01/08 01:24:20;;;;;;;5.88;1.85;;;;;;;-4.00;50.13;103322.28;4956656;28;20495;-67
2024/01/08 01:26:46;;;;;;;4.18;1.77;;;;;;;-3.97;49.70;103333.53;4971220;28;20034;-67
2024/01/08 01:29:11;;;;;;;3.92;1.52;;;;;;;-4.18;50.20;103330.59;4965147;28;20133;-67
2024/01/08 01:31:37;;;;;;;4.70;2.03;;;;;;;-3.83;49.77;103333.47;4960668;28;20023;-66
2024/01/08 01:34:04;;;;;;;5.00;1.58;;;;;;;-3.83;49.29;103336.03;4965786;28;20038;-67
2024/01/08 01:36:34;;;;;;;5.45;1.42;;;;;;;-4.10;49.91;103334.50;4953414;28;20858;-67
2024/01/08 01:39:01;;;;;;;3.15;2.33;;;;;;;-4.11;49.93;103340.38;4953241;28;20039;-66
2024/01/08 01:41:27;;;;;;;4.57;2.25;;;;;;;-4.12;49.59;103353.06;4960532;28;20135;-66
2024/01/08 01:43:52;;;;;;;3.92;1.83;;;;;;;-4.17;49.58;103347.66;4954377;28;20058;-67
2024/01/08 01:46:25;;;;;;;4.90;2.42;;;;;;;-4.38;49.76;103344.69;4940276;28;20095;-67
2024/01/08 01:48:52;;;;;;;4.80;2.05;;;;;;;-4.49;49.68;103350.81;4974118;28;20112;-66
2024/01/08 01:51:18;;;;;;;3.95;1.45;;;;;;;-4.46;49.83;103351.00;4938229;28;20035;-66
2024/01/08 01:53:45;;;;;;;2.20;1.05;;;;;;;-4.07;49.02;103351.69;4959675;28;20042;-69
2024/01/08 01:56:12;;;;;;;8.90;1.00;;;;;;;-4.38;49.49;103354.91;4963594;28;20125;-69
2024/01/08 01:58:38;;;;;;;3.13;1.48;;;;;;;-4.55;49.89;103352.97;4957043;28;20541;-65
2024/01/08 02:01:04;;;;;;;3.22;1.27;;;;;;;-4.49;50.43;103353.38;4953481;28;20046;-72
2024/01/08 02:03:31;;;;;;;7.53;1.70;;;;;;;-4.36;49.87;103357.56;4959894;28;20034;-72
2024/01/08 02:05:57;;;;;;;2.20;1.23;;;;;;;-4.37;49.92;103356.66;4958219;28;20038;-73
2024/01/08 02:08:23;;;;;;;4.47;1.20;;;;;;;-4.64;50.62;103355.84;4990785;28;20038;-73
2024/01/08 02:10:48;;;;;;;5.07;0.93;;;;;;;-4.52;50.37;103355.75;4975708;28;20041;-73
2024/01/08 02:13:14;;;;;;;4.20;1.15;;;;;;;-4.43;50.15;103356.31;4953465;28;20316;-72
2024/01/08 02:15:39;;;;;;;6.20;0.88;;;;;;;-4.22;49.60;103351.63;4958708;28;20104;-73
2024/01/08 02:18:05;;;;;;;6.35;2.22;;;;;;;-4.26;49.78;103353.91;4956061;28;20038;-72
2024/01/08 02:20:31;;;;;;;10.50;2.08;;;;;;;-4.24;49.47;103347.22;4959861;28;20046;-74
2024/01/08 02:22:58;;;;;;;2.33;1.00;;;;;;;-4.36;49.85;103353.34;4955820;28;20130;-75
2024/01/08 02:25:26;;;;;;;3.53;1.17;;;;;;;-4.68;50.48;103348.78;4955643;28;20646;-72
2024/01/08 02:27:52;;;;;;;3.88;1.13;;;;;;;-4.48;50.41;103352.56;4959460;28;20026;-72
2024/01/08 02:30:18;;;;;;;3.08;1.20;;;;;;;-4.60;50.00;103351.81;4951092;28;20177;-65
2024/01/08 02:32:43;;;;;;;2.15;1.15;;;;;;;-4.62;50.80;103353.41;4955251;28;20129;-65
2024/01/08 02:35:12;;;;;;;3.30;1.52;;;;;;;-4.43;50.08;103356.31;4940767;28;20052;-68
2024/01/08 02:37:38;;;;;;;4.55;1.05;;;;;;;-4.40;50.05;103353.94;4950611;28;20419;-66
2024/01/08 02:40:04;;;;;;;3.45;0.85;;;;;;;-4.73;50.62;103363.78;4951062;28;20125;-70
2024/01/08 02:42:29;;;;;;;2.35;0.90;;;;;;;-4.62;50.43;103350.84;4955911;28;20204;-71
2024/01/08 02:44:55;;;;;;;3.20;1.05;;;;;;;-4.48;50.08;103351.69;4955424;28;20114;-71
2024/01/08 02:47:22;;;;;;;5.30;1.27;;;;;;;-4.55;50.46;103350.44;4973195;28;20489;-70
2024/01/08 02:49:47;;;;;;;3.20;0.88;;;;;;;-4.59;50.05;103349.38;4975694;28;20058;-70
2024/01/08 02:52:12;;;;;;;3.65;1.75;;;;;;;-4.56;50.00;103353.78;4971872;28;20459;-67
2024/01/08 02:54:38;;;;;;;2.65;0.90;;;;;;;-4.61;50.64;103355.13;4952588;28;20414;-66
2024/01/08 02:57:04;;;;;;;5.53;1.08;;;;;;;-4.72;50.58;103363.03;4955120;28;20438;-66
2024/01/08 02:59:29;;;;;;;3.60;1.52;;;;;;;-4.61;51.07;103358.59;4955580;28;20042;-66
2024/01/08 03:01:55;;;;;;;9.50;1.50;;;;;;;-4.82;51.22;103365.75;4960836;28;20792;-65
2024/01/08 03:04:20;;;;;;;6.88;2.08;;;;;;;-4.71;51.11;103353.69;4968644;28;20669;-64
2024/01/08 03:06:45;;;;;;;4.60;1.70;;;;;;;-4.53;50.92;103357.38;4955741;28;20605;-66
2024/01/08 03:09:11;;;;;;;7.60;1.55;;;;;;;-4.65;51.50;103358.31;4967787;28;20038;-67
2024/01/08 03:11:36;;;;;;;3.20;1.10;;;;;;;-4.76;51.63;103362.75;4951804;28;20027;-67
2024/01/08 03:14:02;;;;;;;2.10;0.95;;;;;;;-4.43;51.36;103361.41;4948451;28;20501;-68
2024/01/08 03:16:27;;;;;;;5.93;1.67;;;;;;;-4.51;51.38;103363.47;4952408;28;20553;-68
2024/01/08 03:18:53;;;;;;;2.70;1.35;;;;;;;-4.75;52.32;103372.16;4950973;28;20118;-67
2024/01/08 03:21:18;;;;;;;9.70;1.67;;;;;;;-4.51;52.45;103367.72;4952027;28;20071;-67
2024/01/08 03:23:44;;;;;;;3.88;1.40;;;;;;;-4.35;51.82;103367.84;4939941;28;20054;-67
2024/01/08 03:26:09;;;;;;;4.20;1.25;;;;;;;-4.49;52.16;103371.25;4937814;28;20363;-68
2024/01/08 03:28:35;;;;;;;2.42;0.98;;;;;;;-4.26;51.96;103364.13;4924031;28;20062;-67
2024/01/08 03:31:01;;;;;;;2.83;1.17;;;;;;;-4.15;51.73;103371.63;4942677;28;20119;-67
2024/01/08 03:33:28;;;;;;;3.45;1.50;;;;;;;-4.21;51.82;103372.94;4945206;28;20030;-66
2024/01/08 03:35:54;;;;;;;3.50;1.25;;;;;;;-4.28;51.96;103375.91;4960234;28;20135;-65
2024/01/08 03:38:20;;;;;;;1.98;1.77;;;;;;;-4.39;52.88;103370.13;4956128;28;20031;-67
2024/01/08 03:40:46;;;;;;;2.97;1.20;;;;;;;-4.33;52.16;103367.97;4955384;28;20045;-68
2024/01/08 03:43:12;;;;;;;5.40;1.83;;;;;;;-4.34;52.03;103374.75;4956668;28;20039;-68
2024/01/08 03:45:37;;;;;;;3.72;1.17;;;;;;;-4.54;52.16;103377.75;4957283;28;20133;-71
2024/01/08 03:48:04;;;;;;;4.47;1.00;;;;;;;-4.53;52.21;103374.38;4958285;28;20125;-68
2024/01/08 03:50:29;;;;;;;3.40;1.38;;;;;;;-4.64;52.57;103375.38;4955404;28;20049;-65
2024/01/08 03:52:55;;;;;;;3.42;1.23;;;;;;;-4.67;52.23;103375.19;4955755;28;20062;-66
2024/01/08 03:55:20;;;;;;;3.67;1.27;;;;;;;-4.82;52.80;103373.41;4975909;28;20078;-68
2024/01/08 03:57:46;;;;;;;4.90;0.93;;;;;;;-4.75;52.69;103373.03;4956775;28;21484;-67
2024/01/08 04:00:11;;;;;;;4.95;1.33;;;;;;;-4.99;53.24;103364.69;4955671;28;20082;-67
2024/01/08 04:02:40;;;;;;;3.55;1.10;;;;;;;-4.92;52.88;103359.22;4955708;28;20046;-70
2024/01/08 04:05:09;;;;;;;9.98;2.10;;;;;;;-5.09;53.28;103361.47;4951231;28;20129;-67
2024/01/08 04:07:34;;;;;;;3.35;0.98;;;;;;;-5.01;53.49;103367.94;4969047;28;20077;-68
2024/01/08 04:10:00;;;;;;;4.63;1.50;;;;;;;-5.05;53.69;103361.75;4965579;28;20081;-70
2024/01/08 04:12:25;;;;;;;4.47;0.90;;;;;;;-4.92;53.11;103371.97;4970393;28;20938;-70
2024/01/08 04:14:51;;;;;;;2.47;1.00;;;;;;;-4.87;53.26;103366.28;4956535;28;20468;-67
2024/01/08 04:17:16;;;;;;;3.05;1.00;;;;;;;-4.95;53.14;103369.22;4973797;28;20037;-69
2024/01/08 04:19:41;;;;;;;3.92;1.08;;;;;;;-4.84;52.96;103367.34;4959583;28;20618;-70
2024/01/08 04:22:07;;;;;;;5.57;1.35;;;;;;;-4.92;53.43;103368.53;4959515;28;20062;-71
2024/01/08 04:24:32;;;;;;;4.15;1.55;;;;;;;-4.97;53.68;103357.13;4950455;28;20133;-69
2024/01/08 04:26:58;;;;;;;8.98;1.00;;;;;;;-4.81;53.35;103357.34;4958541;28;20113;-69
2024/01/08 04:29:23;;;;;;;2.65;0.82;;;;;;;-4.82;53.40;103354.69;4951608;28;20393;-69
2024/01/08 04:31:49;;;;;;;4.32;1.33;;;;;;;-5.01;54.20;103356.06;4972835;28;20265;-69
2024/01/08 04:34:15;;;;;;;3.95;1.08;;;;;;;-4.66;53.76;103352.31;4952896;28;20043;-69
2024/01/08 04:36:43;;;;;;;2.05;0.60;;;;;;;-4.57;53.38;103352.00;4957604;28;20038;-69
2024/01/08 04:39:09;;;;;;;5.90;1.50;;;;;;;-4.67;53.54;103354.78;4964886;28;20053;-69
2024/01/08 04:41:35;;;;;;;3.58;1.25;;;;;;;-4.59;53.74;103354.47;4955113;28;20026;-69
2024/01/08 04:44:00;;;;;;;4.85;0.98;;;;;;;-4.62;53.94;103358.50;4957600;28;20039;-69
2024/01/08 04:46:26;;;;;;;6.68;0.85;;;;;;;-4.51;54.22;103360.03;4962077;28;20031;-70
2024/01/08 04:48:51;;;;;;;4.80;1.17;;;;;;;-4.27;53.58;103363.25;4970451;28;20046;-69
2024/01/08 04:51:22;;;;;;;5.25;1.15;;;;;;;-4.17;53.42;103359.56;4954347;28;20055;-69
2024/01/08 04:53:48;;;;;;;2.35;0.90;;;;;;;-4.25;53.62;103365.91;4962749;28;20038;-68
2024/01/08 04:56:24;;;;;;;2.42;1.35;;;;;;;-4.16;53.63;103367.34;4954710;28;20114;-69
2024/01/08 04:58:53;;;;;;;7.70;1.35;;;;;;;-4.07;53.35;103361.91;4956218;28;20707;-68
2024/01/08 05:01:18;;;;;;;3.38;0.95;;;;;;;-4.16;53.58;103381.78;4954352;28;20026;-69
2024/01/08 05:03:44;;;;;;;5.95;1.55;;;;;;;-4.10;53.72;103377.94;4956611;28;20038;-69
2024/01/08 05:06:13;;;;;;;5.63;1.17;;;;;;;-4.09;53.61;103372.03;4925588;28;20622;-72
2024/01/08 05:08:39;;;;;;;4.47;0.80;;;;;;;-3.99;53.40;103376.00;4917495;28;20505;-66
2024/01/08 05:11:06;;;;;;;4.00;0.98;;;;;;;-3.84;53.44;103377.72;4921887;28;20189;-65
2024/01/08 05:13:35;;;;;;;5.68;1.13;;;;;;;-3.88;53.55;103380.09;4923438;28;20107;-65
2024/01/08 05:16:01;;;;;;;2.60;0.82;;;;;;;-3.86;53.20;103371.66;4922200;28;20050;-71
2024/01/08 05:18:28;;;;;;;5.80;0.85;;;;;;;-3.86;53.15;103374.19;4940290;28;20026;-72
2024/01/08 05:20:54;;;;;;;10.00;0.80;;;;;;;-3.70;52.30;103374.31;4954485;28;20046;-71
2024/01/08 05:23:20;;;;;;;4.25;0.90;;;;;;;-3.68;52.26;103372.72;4955886;28;20030;-71
2024/01/08 05:25:45;;;;;;;3.60;0.60;;;;;;;-3.71;52.37;103373.44;4954884;28;20097;-71
2024/01/08 05:28:11;;;;;;;2.88;0.60;;;;;;;-3.81;52.27;103383.00;4960379;28;20710;-71
2024/01/08 05:30:36;;;;;;;6.18;0.82;;;;;;;-3.57;51.75;103376.81;4987817;28;20587;-65
2024/01/08 05:33:02;;;;;;;3.78;1.02;;;;;;;-3.47;51.61;103378.25;4962505;28;20042;-66
2024/01/08 05:35:28;;;;;;;1.95;0.60;;;;;;;-3.51;51.59;103384.84;4959102;28;20034;-66
2024/01/08 05:37:53;;;;;;;3.95;1.75;;;;;;;-3.73;52.19;103387.78;4959329;28;20135;-68
2024/01/08 05:40:18;;;;;;;10.13;0.52;;;;;;;-3.85;52.49;103391.28;4959074;28;20058;-68
2024/01/08 05:42:45;;;;;;;1.50;0.50;;;;;;;-3.54;51.91;103387.22;4958229;28;20085;-68
2024/01/08 05:45:10;;;;;;;2.90;1.00;;;;;;;-3.90;52.26;103386.81;4962853;28;20080;-68
2024/01/08 05:47:36;;;;;;;1.75;0.50;;;;;;;-3.73;52.18;103386.91;4953142;28;21837;-65
2024/01/08 05:50:04;;;;;;;2.13;0.55;;;;;;;-3.81;52.52;103386.44;4960251;28;20113;-67
2024/01/08 05:52:29;;;;;;;2.35;0.88;;;;;;;-3.65;52.32;103388.28;4955937;28;20035;-67
2024/01/08 05:54:56;;;;;;;5.82;1.10;;;;;;;-3.66;52.15;103396.72;4988180;28;20053;-67
2024/01/08 05:57:22;;;;;;;2.55;0.55;;;;;;;-3.59;51.79;103397.97;4968920;28;20042;-67
2024/01/08 05:59:47;;;;;;;2.42;0.90;;;;;;;-3.53;51.69;103396.66;4965399;28;20057;-65
2024/01/08 06:02:13;;;;;;;3.30;0.80;;;;;;;-3.41;51.38;103403.28;4975805;28;20035;-65
2024/01/08 06:04:38;;;;;;;4.00;0.40;;;;;;;-3.77;52.09;103406.28;4952591;28;21236;-66
2024/01/08 06:07:04;;;;;;;1.63;0.30;;;;;;;-3.44;51.46;103398.00;4965024;28;20494;-66
2024/01/08 06:09:30;;;;;;;7.68;1.95;;;;;;;-3.56;51.25;103409.25;4956249;28;20043;-66
2024/01/08 06:11:56;;;;;;;2.47;0.30;;;;;;;-3.43;51.06;103405.72;4960869;28;20112;-67
2024/01/08 06:14:21;;;;;;;3.97;0.65;;;;;;;-3.50;51.14;103409.59;4956236;28;20057;-68
2024/01/08 06:16:47;;;;;;;3.85;0.95;;;;;;;-3.47;50.92;103414.91;4971832;28;20035;-72
2024/01/08 06:19:13;;;;;;;1.30;0.28;;;;;;;-3.52;50.69;103406.09;4957670;28;20113;-71
2024/01/08 06:21:38;;;;;;;3.97;0.40;;;;;;;-3.44;50.69;103409.09;4953203;28;20113;-68
2024/01/08 06:24:04;;;;;;;0.75;0.30;;;;;;;-3.35;49.86;103406.19;4956653;28;20056;-67
2024/01/08 06:26:30;;;;;;;3.33;0.95;;;;;;;-3.45;50.10;103415.00;4969633;28;20042;-68
2024/01/08 06:28:56;;;;;;;3.00;0.50;;;;;;;-3.41;49.99;103416.06;4958698;28;20026;-70
2024/01/08 06:31:22;;;;;;;7.43;0.30;;;;;;;-3.35;49.43;103413.88;4960589;28;20062;-69
2024/01/08 06:33:48;;;;;;;1.10;0.57;;;;;;;-3.49;49.65;103411.38;4948880;28;20035;-68
2024/01/08 06:36:13;;;;;;;2.05;0.10;;;;;;;-3.73;49.58;103413.34;4957030;28;20034;-65
2024/01/08 06:38:39;;;;;;;1.42;0.30;;;;;;;-3.44;49.49;103416.75;4952748;28;20749;-67
2024/01/08 06:41:05;;;;;;;7.38;0.55;;;;;;;-3.24;48.84;103411.94;4965880;28;20476;-67
2024/01/08 06:43:31;;;;;;;1.85;0.75;;;;;;;-3.16;48.48;103409.03;4969917;28;20129;-67
2024/01/08 06:45:56;;;;;;;1.77;0.40;;;;;;;-3.28;49.00;103413.44;4956441;28;20137;-68
2024/01/08 06:48:22;;;;;;;3.08;0.22;;;;;;;-3.28;49.02;103413.44;4959726;28;20043;-70
2024/01/08 06:50:47;;;;;;;2.75;0.40;;;;;;;-3.33;49.33;103413.16;4952060;28;20048;-73
2024/01/08 06:53:13;;;;;;;4.75;0.73;;;;;;;-3.24;49.07;103423.06;4959798;28;20031;-68
2024/01/08 06:55:38;;;;;;;6.35;0.55;;;;;;;-3.16;48.78;103421.84;4969015;28;20073;-69
2024/01/08 06:58:04;;;;;;;2.55;0.30;;;;;;;-3.02;48.71;103420.06;4960102;28;20045;-69
2024/01/08 07:00:30;;;;;;;2.55;0.40;;;;;;;-3.14;48.65;103422.81;4954126;28;20469;-73
2024/01/08 07:02:55;;;;;;;3.40;0.47;;;;;;;-3.12;48.81;103423.75;4956815;28;20042;-72
2024/01/08 07:05:21;;;;;;;4.32;0.45;;;;;;;-3.28;48.43;103415.97;4959572;28;20142;-73
2024/01/08 07:07:47;;;;;;;7.68;0.52;;;;;;;-3.18;48.67;103425.06;4958438;28;20884;-71
2024/01/08 07:10:12;;;;;;;1.27;0.22;;;;;;;-3.33;49.13;103428.50;4959671;28;20090;-74
2024/01/08 07:12:38;;;;;;;3.67;0.60;;;;;;;-3.25;49.17;103416.16;4955433;28;20143;-71
2024/01/08 07:15:04;;;;;;;1.40;0.28;;;;;;;-3.07;48.69;103424.91;4980768;28;20045;-72
2024/01/08 07:17:29;;;;;;;2.75;0.80;;;;;;;-3.30;49.43;103432.91;4954169;28;20073;-71
2024/01/08 07:19:55;;;;;;;1.27;0.45;;;;;;;-3.42;50.08;103438.19;4957411;28;20069;-72
2024/01/08 07:22:21;;;;;;;4.22;0.40;;;;;;;-3.21;49.54;103441.13;4966675;28;20214;-71
2024/01/08 07:24:47;;;;;;;6.22;0.38;;;;;;;-3.33;49.66;103453.22;4955547;28;20615;-74
2024/01/08 07:27:12;;;;;;;2.75;0.35;;;;;;;-3.52;49.78;103446.09;4961872;28;20034;-72
2024/01/08 07:29:38;;;;;;;2.58;1.25;;;;;;;-3.20;49.12;103450.56;4951356;28;20067;-72
2024/01/08 07:32:03;;;;;;;3.53;0.50;;;;;;;-3.27;49.40;103458.69;4989044;28;20589;-69
2024/01/08 07:34:30;;;;;;;7.90;0.88;;;;;;;-3.32;49.51;103458.44;4957694;28;20049;-70
2024/01/08 07:36:56;;;;;;;2.78;0.50;;;;;;;-3.40;49.40;103466.44;4960925;28;20965;-69
2024/01/08 07:39:21;;;;;;;3.00;0.40;;;;;;;-3.56;50.05;103478.28;4958018;28;20090;-71
2024/01/08 07:41:49;;;;;;;4.00;1.33;;;;;;;-3.35;49.53;103471.00;4955143;28;20034;-69
2024/01/08 07:44:15;;;;;;;6.30;0.85;;;;;;;-3.27;49.64;103474.91;4958390;28;20039;-70
2024/01/08 07:46:42;;;;;;;2.15;0.45;;;;;;;-3.28;49.74;103474.81;4955031;28;20043;-73
2024/01/08 07:49:11;;;;;;;6.50;0.52;;;;;;;-3.18;49.58;103481.34;4970542;28;20050;-70
2024/01/08 07:51:37;;;;;;;4.07;0.40;;;;;;;-3.21;49.79;103484.59;4952913;28;20034;-70
2024/01/08 07:54:02;;;;;;;1.27;0.30;;;;;;;-3.20;50.08;103486.41;4953674;28;20034;-68
2024/01/08 07:56:28;;;;;;;1.23;0.50;;;;;;;-3.30;50.34;103494.31;4971901;28;20583;-70
2024/01/08 07:58:54;;;;;;;3.90;1.20;;;;;;;-3.27;50.27;103490.25;4959078;28;20062;-71
2024/01/08 08:01:19;;;;;;;2.92;1.13;;;;;;;-3.15;50.18;103497.78;4958946;28;20073;-72
2024/01/08 08:03:45;;;;;;;5.72;0.40;;;;;;;-3.30;50.63;103504.53;4966451;28;20043;-70
2024/01/08 08:06:11;;;;;;;5.45;1.33;;;;;;;-3.21;50.47;103504.19;4971592;28;20047;-71
2024/01/08 08:08:37;;;;;;;3.47;1.27;;;;;;;-3.28;50.79;103508.94;4953066;28;20042;-73
2024/01/08 08:11:05;;;;;;;4.55;0.73;;;;;;;-3.23;50.52;103509.22;4955359;28;23407;-69
2024/01/08 08:13:31;;;;;;;2.92;1.10;;;;;;;-3.35;50.79;103516.16;4958697;28;20053;-66
2024/01/08 08:15:56;;;;;;;3.45;0.82;;;;;;;-3.24;50.56;103515.13;4942222;28;20819;-66
2024/01/08 08:18:22;;;;;;;5.45;0.95;;;;;;;-3.10;50.20;103510.84;4963793;28;20030;-71
2024/01/08 08:20:48;;;;;;;4.35;0.80;;;;;;;-3.23;49.93;103519.44;4948548;28;20125;-72
2024/01/08 08:23:13;;;;;;;4.93;1.40;;;;;;;-3.25;49.72;103528.69;4962870;28;20037;-72
2024/01/08 08:25:40;;;;;;;2.72;0.93;;;;;;;-3.23;50.04;103527.13;4968459;28;20354;-66
2024/01/08 08:28:06;;;;;;;3.67;0.75;;;;;;;-3.13;49.60;103537.13;4956706;28;20038;-71
2024/01/08 08:30:32;;;;;;;5.88;1.02;;;;;;;-3.15;49.96;103540.38;4959332;28;20610;-72
2024/01/08 08:32:58;;;;;;;4.13;0.70;;;;;;;-3.05;50.13;103538.47;4952735;28;20031;-69
2024/01/08 08:35:28;;;;;;;2.35;1.05;;;;;;;-2.95;49.63;103544.13;4958380;28;20038;-68
2024/01/08 08:37:56;;;;;;;5.80;0.52;;;;;;;-2.99;48.93;103543.06;4981722;28;20042;-67
2024/01/08 08:40:22;;;;;;;6.78;0.82;;;;;;;-3.01;49.03;103548.88;4986502;28;20035;-67
2024/01/08 08:42:47;;;;;;;3.45;1.08;;;;;;;-3.00;49.00;103550.66;4961496;28;20027;-67
2024/01/08 08:45:13;;;;;;;2.22;0.73;;;;;;;-2.74;48.56;103545.38;4965558;28;20071;-68
2024/01/08 08:47:39;;;;;;;2.25;0.70;;;;;;;-2.56;48.27;103554.91;4954212;28;20038;-68
2024/01/08 08:50:05;;;;;;;3.83;0.82;;;;;;;-2.91;49.17;103554.63;4957761;28;20127;-67
2024/01/08 08:52:30;;;;;;;4.32;0.82;;;;;;;-2.94;49.67;103558.69;4957687;28;20120;-68
2024/01/08 08:54:56;;;;;;;3.03;0.63;;;;;;;-3.10;49.69;103570.56;4953003;28;20073;-68
2024/01/08 08:57:21;;;;;;;5.18;1.08;;;;;;;-2.85;49.25;103572.00;4957332;28;20492;-67
2024/01/08 08:59:47;;;;;;;3.90;1.08;;;;;;;-2.96;48.83;103578.19;4948891;28;20069;-68
2024/01/08 09:02:13;;;;;;;3.85;1.17;;;;;;;-2.97;49.00;103581.53;4987804;28;20708;-67
2024/01/08 09:04:39;;;;;;;7.63;1.92;;;;;;;-2.95;48.61;103579.97;4935276;28;20034;-68
2024/01/08 09:07:06;;;;;;;2.47;0.75;;;;;;;-2.99;48.17;103580.56;4931977;28;20018;-68
2024/01/08 09:09:32;;;;;;;1.42;0.50;;;;;;;-2.87;48.22;103578.72;4930701;28;20572;-66
2024/01/08 09:11:57;;;;;;;2.47;1.15;;;;;;;-2.89;48.20;103588.00;4927982;28;20034;-68
2024/01/08 09:14:23;;;;;;;4.80;0.98;;;;;;;-2.66;47.72;103592.78;4948693;28;20066;-67
2024/01/08 09:16:49;;;;;;;2.83;0.90;;;;;;;-2.44;47.88;103599.16;4947723;28;20562;-68
2024/01/08 09:19:15;;;;;;;7.82;1.20;;;;;;;-2.32;47.83;103599.00;4983101;28;20289;-68
2024/01/08 09:21:45;;;;;;;2.55;1.05;;;;;;;-2.41;47.77;103607.03;4964096;28;20481;-67
2024/01/08 09:24:17;;;;;;;3.05;1.33;;;;;;;-2.54;47.70;103602.84;4928143;28;20045;-68
2024/01/08 09:26:52;;;;;;;4.45;1.67;;;;;;;-2.42;47.28;103610.41;4955929;28;20061;-68
2024/01/08 09:29:17;;;;;;;2.80;0.70;;;;;;;-2.57;47.25;103614.63;4955254;28;20070;-68
2024/01/08 09:31:45;;;;;;;5.07;0.85;;;;;;;-2.63;47.46;103616.00;4954772;28;20069;-68
2024/01/08 09:34:10;;;;;;;1.92;0.80;;;;;;;-2.80;47.06;103616.72;4951189;28;20069;-67
2024/01/08 09:36:36;;;;;;;9.23;1.00;;;;;;;-3.08;46.91;103620.16;4947120;28;20566;-67
2024/01/08 09:39:02;;;;;;;4.03;0.68;;;;;;;-2.98;46.56;103625.81;4950663;28;20129;-68
2024/01/08 09:41:28;;;;;;;2.17;0.47;;;;;;;-2.97;46.18;103630.16;4955695;28;20558;-68
2024/01/08 09:43:58;;;;;;;3.00;0.90;;;;;;;-2.76;45.64;103628.91;4948648;28;20050;-68
2024/01/08 09:46:27;;;;;;;1.23;0.68;;;;;;;-2.75;45.54;103625.53;4968418;28;20087;-68
2024/01/08 09:48:55;;;;;;;4.38;0.85;;;;;;;-2.45;45.29;103633.25;4968219;28;20037;-68
2024/01/08 09:51:22;;;;;;;6.32;0.80;;;;;;;-2.91;45.70;103638.22;4971090;28;20038;-68
2024/01/08 09:53:48;;;;;;;2.15;0.80;;;;;;;-2.72;45.21;103630.81;4951985;28;20030;-68
2024/01/08 09:56:17;;;;;;;4.00;0.70;;;;;;;-2.56;44.50;103634.31;4952258;28;20046;-68
2024/01/08 09:58:43;;;;;;;2.40;0.80;;;;;;;-2.73;44.49;103626.50;4959532;28;20065;-68
2024/01/08 10:01:09;;;;;;;4.32;0.73;;;;;;;-2.87;44.70;103630.81;4951421;28;20521;-67
2024/01/08 10:03:35;;;;;;;2.20;0.75;;;;;;;-2.53;44.39;103631.94;4956267;28;20098;-67
2024/01/08 10:06:08;;;;;;;1.65;0.55;;;;;;;-2.49;44.42;103641.53;4948400;28;20128;-68
2024/01/08 10:08:33;;;;;;;1.77;0.47;;;;;;;-2.54;44.70;103635.28;4956044;28;20125;-67
2024/01/08 10:10:59;;;;;;;1.80;0.82;;;;;;;-2.85;45.05;103634.34;4981314;28;20244;-67
2024/01/08 10:13:25;;;;;;;2.15;0.47;;;;;;;-3.10;44.89;103641.31;4970784;28;20068;-67
2024/01/08 10:15:52;;;;;;;8.02;1.33;;;;;;;-3.00;44.10;103633.44;4955951;28;20125;-66
2024/01/08 10:18:18;;;;;;;1.85;0.70;;;;;;;-2.80;44.27;103642.31;4958522;28;20073;-68
2024/01/08 10:20:46;;;;;;;4.47;0.55;;;;;;;-3.00;44.59;103627.44;4956084;28;20101;-67
2024/01/08 10:23:16;;;;;;;5.13;0.63;;;;;;;-2.62;43.57;103632.28;4932414;28;21691;-67
2024/01/08 10:25:52;;;;;;;2.83;0.77;;;;;;;-2.86;43.20;103636.81;4937372;28;20049;-66
2024/01/08 10:28:21;;;;;;;2.45;0.55;;;;;;;-2.81;43.35;103635.41;4935952;28;20036;-67
2024/01/08 10:30:47;;;;;;;3.28;0.60;;;;;;;-2.54;42.67;103631.03;4937933;28;20144;-67
2024/01/08 10:33:16;;;;;;;3.05;1.33;;;;;;;-2.56;43.31;103635.19;4947521;28;20458;-66
2024/01/08 10:35:42;;;;;;;4.47;1.02;;;;;;;-2.57;43.42;103635.97;4956992;28;20042;-67
2024/01/08 10:38:08;;;;;;;2.67;0.60;;;;;;;-2.65;44.19;103638.09;4950725;28;20147;-67
2024/01/08 10:40:35;;;;;;;2.13;1.00;;;;;;;-2.27;43.29;103630.88;4959370;28;20038;-66
2024/01/08 10:43:00;;;;;;;2.58;0.73;;;;;;;-2.30;43.97;103625.56;4949380;28;20054;-69
2024/01/08 10:45:26;;;;;;;8.43;0.73;;;;;;;-2.26;43.96;103628.41;4941970;28;20039;-69
2024/01/08 10:48:11;;;;;;;3.63;0.88;;;;;;;-2.42;43.98;103621.50;4948386;28;20034;-69
2024/01/08 10:50:44;;;;;;;4.00;0.70;;;;;;;-2.29;43.31;103625.69;4929493;28;20049;-69
2024/01/08 10:53:20;;;;;;;3.70;0.55;;;;;;;-2.14;43.81;103623.09;4926944;28;20215;-69
2024/01/08 10:55:48;;;;;;;3.58;1.25;;;;;;;-2.11;43.07;103627.50;4925060;28;20186;-67
2024/01/08 10:58:30;;;;;;;3.42;0.63;;;;;;;-2.06;42.78;103621.84;4946302;28;20424;-66
2024/01/08 11:00:56;;;;;;;6.85;0.60;;;;;;;-2.38;42.69;103616.56;4952118;28;20141;-69
2024/01/08 11:03:22;;;;;;;2.50;0.60;;;;;;;-2.15;42.27;103615.34;4957014;28;20039;-68
2024/01/08 11:05:51;;;;;;;1.02;0.75;;;;;;;-2.03;42.10;103618.56;4957992;28;20057;-66
2024/01/08 11:08:20;;;;;;;2.97;0.70;;;;;;;-2.44;41.83;103615.41;4951015;28;20891;-67
2024/01/08 11:10:46;;;;;;;2.78;0.68;;;;;;;-2.34;42.57;103616.81;4952869;28;20569;-66
2024/01/08 11:13:13;;;;;;;2.53;0.45;;;;;;;-2.33;41.90;103621.16;4951495;28;20137;-67
2024/01/08 11:15:43;;;;;;;9.73;0.65;;;;;;;-2.33;42.24;103616.03;4971397;28;21118;-68
2024/01/08 11:18:24;;;;;;;1.65;0.43;;;;;;;-2.55;42.74;103618.16;4981582;28;20130;-67
2024/01/08 11:20:50;;;;;;;1.40;0.52;;;;;;;-2.18;42.37;103627.94;4971854;28;20046;-67